Airfield :
LOGIN :

Register | Disclaimer

   EN    FR    IT 

 










Legend :    VFR   Marginal VFR   IFR   Intensive IFR   Very Intensive IFR
Visi :
Ceiling :
>= 8 km
>= 3000ft
5 to 8 km
1000 to 3000 ft
1500m to 5 km
500 to 1000 ft
800 to 1500m
200 to 500 ft
< 800m
< 200 ft
Symbols :   Thunderstorms  Fog  Heavy snow  Heavy precipitations  Wind > 20 kt
SIGMETs :     Misc.  Thunderstorms  Icing  Turbulence  Mountain Waves  Volcanic Ashes






- Airport Elevation : 1363 ft


ETIC - Grafenwohr Army Air Field

CURRENT METAR :
  • 280629Z AUTO 28006KT 5000 -SN BR FEW005 BKN013 OVC019 00/00 A2992 RMK AO2 UPB13E15SNB15 SLP156 $

EXPIRED METARs :
  • 280613Z AUTO 28007KT 9999 -UP OVC014 00/00 A2991 RMK AO2 UPB13 OVC V BKN PRESRR SLP152 $
  • 280556Z AUTO 28008KT 9999 BKN014 BKN019 OVC025 00/00 A2989 RMK AO2 SNB0458E14UPB39E51 SLP146 P0003 60025 T00030002 10004 20001 52046 $
  • 280539Z AUTO 28006KT 9999 -UP SCT017 BKN024 OVC041 00/00 A2988 RMK AO2 SNB0458E14UPB39 SLP142 $
  • 280529Z AUTO 28007KT 9999 SCT016 BKN024 OVC040 00/00 A2988 RMK AO2 SNB0458E14 CIG 016V024 PRESRR SLP142 $
  • 280514Z AUTO 28009KT 9999 BKN016 OVC021 00/00 A2986 RMK AO2 SNB0458E14 CIG 014V023 SLP135 $
  • 280458Z AUTO 29010G16KT 9999 -SN SCT014 BKN021 OVC029 00/00 A2985 RMK AO2 SNB58 SLP130 $
  • 280449Z AUTO 28008KT 9999 FEW007 SCT014 BKN023 OVC029 00/00 A2984 RMK AO2 SNE49 CIG 023V029 BKN V SCT SLP127 $
  • 280441Z AUTO 28008KT 9999 -SN FEW007 OVC027 00/00 A2983 RMK AO2 CIG 021V027 SLP123 $
  • 280426Z AUTO 28008KT 9999 -SN SCT006 BKN019 OVC026 00/00 A2982 RMK AO2 SLP120 $
  • 280356Z AUTO 27006KT 9000 -SN BR BKN006 BKN012 OVC021 00/00 A2980 RMK AO2 SLP111 P0004 T00020002 $
  • 280353Z AUTO 28005KT 9000 -SN BR BKN006 BKN012 OVC021 00/00 A2980 RMK AO2 SLP111 $

TAF TAF ETIC
Valid from the 28 at 02:00 until the 29 at 08:00 UTC


280215Z 2802/2908 30010G15KT 5000 -SHSN BKN012 OVC025 640128 QNH2972INS
TEMPO 2804/2807 30012G18KT 0800 SHSN
BECMG 2807/2808 30010G15KT 8000 -SHSN BKN020 OVC035 640208 QNH2999INS
BECMG 2814/2815 26008KT 9999 NSW BKN020 OVC035 640208 QNH2999INS
BECMG 2901/2902 16008KT 0800 SHSN BKN015 OVC025 640158 QNH2987INS TX01/2812Z TNM03/2818Z



MET'MAP, your aeronautical weather chart ! - Copyright ORBIFLY December 2007 - Disclaimer

ORBIFLY MET'MAP TEAM :

Programming & Development : Alexandra Zaïnal
Concept & original design : Baudouin d'Aumeries
Assistance for programming : Marc-Olivier Méhu
Technical & hardware support : Manuel Goepfert

Contact : metmap@orbifly.com




SOURCES & CREDITS :

   NOAA